Angleton, Texas
Current Conditions -  °F | °C
As of 12:53 PM on Wednesday 26 Nov 2014 (Local Time) from KLBX Reporting Station
Clear Clear  
Wind Chill: 21°   Ceiling: Unl
Heat Index: 21°   Visibility: 10mi
Dew Point:   Wind: 10mph
Humidity: 30%   Direction: 240°WSW
Pressure: 30.21"   Gusts: 21mph
Location:  29.16°N, 95.43°W
Report Text: KLBX 261853Z AUTO 24009G18KT 10SM CLR 21/02 A3021 RMK AO2 SLP229 T02060022
Loading
Personal Weather Stations






























Interactive Weather Map New forecast layout! Learn more

10-Day Weather Forecast

Advertisements
Track Severe Weather on mobile